Time;durP1;ratioP1;P1;durP2;ratioP2;P2;SDS_P1;SDS_P2;PMS_P1;PMS_P2;Temp;Humidity;BMP_temperature;BMP_pressure;BME280_temperature;BME280_humidity;BME280_pressure;Samples;Min_cycle;Max_cycle;Signal;HPM_P1;HPM_P2
2023/05/04 00:00:40;;;;;;;3.60;2.50;;;8.50;99.90;;;;;;5026968;28;20192;-70
2023/05/04 00:03:06;;;;;;;4.43;2.60;;;8.50;99.90;;;;;;5012158;28;20558;-71
2023/05/04 00:05:31;;;;;;;2.70;2.20;;;8.40;99.90;;;;;;5012145;28;20677;-73
2023/05/04 00:07:57;;;;;;;2.33;2.10;;;8.40;99.90;;;;;;5012128;28;20218;-71
2023/05/04 00:10:22;;;;;;;3.90;3.23;;;8.40;99.90;;;;;;5012059;28;20460;-71
2023/05/04 00:12:48;;;;;;;3.07;2.47;;;8.30;99.90;;;;;;5011953;28;20212;-73
2023/05/04 00:15:13;;;;;;;2.40;1.97;;;8.30;99.90;;;;;;5012078;28;20168;-71
2023/05/04 00:17:39;;;;;;;3.83;2.00;;;8.30;99.90;;;;;;5011650;28;20172;-75
2023/05/04 00:20:05;;;;;;;3.30;2.07;;;8.20;99.90;;;;;;5012167;28;20243;-73
2023/05/04 00:22:31;;;;;;;5.07;2.60;;;8.20;99.90;;;;;;5012206;28;20654;-71
2023/05/04 00:24:56;;;;;;;2.53;2.33;;;8.10;99.90;;;;;;5012137;28;20403;-74
2023/05/04 00:27:22;;;;;;;2.20;2.00;;;8.10;99.90;;;;;;5014061;28;20196;-73
2023/05/04 00:29:47;;;;;;;6.33;2.53;;;8.10;99.90;;;;;;5015841;28;20195;-72
2023/05/04 00:32:13;;;;;;;3.77;2.10;;;8.10;99.90;;;;;;5015828;28;20286;-71
2023/05/04 00:34:38;;;;;;;2.70;2.50;;;8.10;99.90;;;;;;5016114;28;20186;-71
2023/05/04 00:37:05;;;;;;;3.83;2.83;;;8.00;99.90;;;;;;5015210;28;20185;-72
2023/05/04 00:39:30;;;;;;;6.13;2.67;;;8.00;99.90;;;;;;5018617;28;20219;-74
2023/05/04 00:41:56;;;;;;;3.27;2.87;;;8.00;99.90;;;;;;5018938;28;20418;-72
2023/05/04 00:44:22;;;;;;;4.60;2.83;;;8.00;99.90;;;;;;5015635;28;20180;-72
2023/05/04 00:46:49;;;;;;;3.10;2.17;;;8.00;99.90;;;;;;5015474;28;20735;-73
2023/05/04 00:49:15;;;;;;;4.90;2.63;;;8.00;99.90;;;;;;5015669;28;20836;-73
2023/05/04 00:51:41;;;;;;;3.57;2.93;;;8.00;99.90;;;;;;5015531;28;20490;-71
2023/05/04 00:54:06;;;;;;;3.07;2.30;;;8.00;99.90;;;;;;5015461;28;20581;-72
2023/05/04 00:56:32;;;;;;;4.73;2.40;;;7.90;99.90;;;;;;5015791;28;20192;-71
2023/05/04 00:58:58;;;;;;;3.80;3.30;;;7.90;99.90;;;;;;5014397;28;20169;-73
2023/05/04 01:01:24;;;;;;;2.23;2.03;;;7.90;99.90;;;;;;5015424;28;20422;-71
2023/05/04 01:03:51;;;;;;;3.00;2.10;;;7.90;99.90;;;;;;5015344;28;20186;-71
2023/05/04 01:06:52;;;;;;;2.80;2.50;;;7.80;99.90;;;;;;5030495;28;20427;-72
2023/05/04 01:09:34;;;;;;;5.07;2.70;;;7.80;99.90;;;;;;5015185;28;20490;-74
2023/05/04 01:12:05;;;;;;;3.70;2.37;;;7.80;99.90;;;;;;5015195;28;20461;-73
2023/05/04 01:14:35;;;;;;;3.53;2.30;;;7.80;99.90;;;;;;5017851;28;20454;-73
2023/05/04 01:17:04;;;;;;;2.50;2.20;;;7.70;99.90;;;;;;5014860;28;20423;-74
2023/05/04 01:19:29;;;;;;;3.17;2.13;;;7.70;99.90;;;;;;5015106;28;20406;-73
2023/05/04 01:21:55;;;;;;;3.27;2.97;;;7.70;99.90;;;;;;5014958;28;20403;-72
2023/05/04 01:24:22;;;;;;;2.00;1.73;;;7.70;99.90;;;;;;5014872;28;20164;-72
2023/05/04 01:26:53;;;;;;;2.83;2.17;;;7.60;99.90;;;;;;5014739;28;20427;-74
2023/05/04 01:29:35;;;;;;;4.73;2.23;;;7.60;99.90;;;;;;5015024;28;20446;-73
2023/05/04 01:32:01;;;;;;;2.70;1.93;;;7.60;99.90;;;;;;5014863;28;20447;-71
2023/05/04 01:34:27;;;;;;;2.90;2.13;;;7.60;99.90;;;;;;5014688;28;20399;-71
2023/05/04 01:36:53;;;;;;;23.77;11.27;;;7.50;99.90;;;;;;5014272;28;20431;-73
2023/05/04 01:39:19;;;;;;;7.67;5.80;;;7.50;99.90;;;;;;5029975;28;20172;-72
2023/05/04 01:41:45;;;;;;;6.17;4.83;;;7.50;99.90;;;;;;5014762;28;20927;-71
2023/05/04 01:44:10;;;;;;;4.00;3.00;;;7.40;99.90;;;;;;5014528;28;20399;-72
2023/05/04 01:46:36;;;;;;;5.47;2.77;;;7.40;99.90;;;;;;5014371;28;20226;-72
2023/05/04 01:49:02;;;;;;;6.50;2.83;;;7.40;99.90;;;;;;5014647;28;20196;-72
2023/05/04 01:51:27;;;;;;;4.00;2.50;;;7.40;99.90;;;;;;5014646;28;20258;-72
2023/05/04 01:53:53;;;;;;;3.27;2.97;;;7.40;99.90;;;;;;5014366;28;20172;-71
2023/05/04 01:56:19;;;;;;;3.03;2.83;;;7.40;99.90;;;;;;5014184;28;20195;-71
2023/05/04 01:58:44;;;;;;;2.63;2.20;;;7.40;99.90;;;;;;5014441;28;20642;-72
2023/05/04 02:01:10;;;;;;;3.57;2.60;;;7.30;99.90;;;;;;5014219;28;20434;-71
2023/05/04 02:03:35;;;;;;;2.40;2.20;;;7.40;99.90;;;;;;5014142;28;20243;-71
2023/05/04 02:06:01;;;;;;;3.40;2.80;;;7.30;99.90;;;;;;5014428;28;20216;-73
2023/05/04 02:08:26;;;;;;;4.77;2.50;;;7.30;99.90;;;;;;5012808;28;20179;-72
2023/05/04 02:10:52;;;;;;;1.83;1.63;;;7.30;99.90;;;;;;5013999;28;20188;-71
2023/05/04 02:13:18;;;;;;;2.83;2.63;;;7.30;99.90;;;;;;5029661;28;20204;-73
2023/05/04 02:15:43;;;;;;;2.90;2.23;;;7.30;99.90;;;;;;5014151;28;20196;-71
2023/05/04 02:18:09;;;;;;;2.57;2.37;;;7.30;99.90;;;;;;5013444;28;20414;-71
2023/05/04 02:20:34;;;;;;;3.67;2.30;;;7.30;99.90;;;;;;5013750;28;20174;-72
2023/05/04 02:23:00;;;;;;;2.70;2.17;;;7.30;99.90;;;;;;5014558;28;20160;-73
2023/05/04 02:25:26;;;;;;;3.83;2.33;;;7.30;99.90;;;;;;5014281;28;20199;-73
2023/05/04 02:27:51;;;;;;;3.30;2.00;;;7.30;99.90;;;;;;5013628;28;20199;-73
2023/05/04 02:30:17;;;;;;;2.63;1.80;;;7.30;99.90;;;;;;5013799;28;20188;-72
2023/05/04 02:32:43;;;;;;;2.97;2.40;;;7.20;99.90;;;;;;5013850;28;20200;-72
2023/05/04 02:35:08;;;;;;;3.20;2.87;;;7.20;99.90;;;;;;5013727;28;20403;-74
2023/05/04 02:37:34;;;;;;;4.50;3.17;;;7.20;99.90;;;;;;5017562;28;20572;-73
2023/05/04 02:40:00;;;;;;;5.90;4.37;;;7.20;99.90;;;;;;5013750;28;20157;-72
2023/05/04 02:42:26;;;;;;;7.57;4.60;;;7.20;99.90;;;;;;5013164;28;20804;-72
2023/05/04 02:44:51;;;;;;;8.13;3.67;;;7.20;99.90;;;;;;5012447;28;20410;-72
2023/05/04 02:47:17;;;;;;;3.40;3.10;;;7.20;99.90;;;;;;5013039;28;20685;-72
2023/05/04 02:49:42;;;;;;;4.93;2.93;;;7.10;99.90;;;;;;5012835;28;20226;-72
2023/05/04 02:52:08;;;;;;;5.70;2.83;;;7.10;99.90;;;;;;5013326;28;20283;-71
2023/05/04 02:54:34;;;;;;;15.23;9.50;;;7.10;99.90;;;;;;5013186;28;20168;-72
2023/05/04 02:56:59;;;;;;;13.10;6.43;;;7.10;99.90;;;;;;5013104;28;20184;-70
2023/05/04 02:59:25;;;;;;;4.60;3.67;;;7.10;99.90;;;;;;5013124;28;20649;-71
2023/05/04 03:01:51;;;;;;;4.53;3.43;;;7.10;99.90;;;;;;5013359;28;20172;-73
2023/05/04 03:04:16;;;;;;;5.40;2.80;;;7.00;99.90;;;;;;5013260;28;20203;-72
2023/05/04 03:06:42;;;;;;;4.00;3.63;;;7.00;99.90;;;;;;5013036;28;20584;-71
2023/05/04 03:09:08;;;;;;;3.27;2.37;;;7.00;99.90;;;;;;5012838;28;20177;-72
2023/05/04 03:11:34;;;;;;;2.67;2.17;;;7.00;99.90;;;;;;5012619;28;20200;-72
2023/05/04 03:13:59;;;;;;;3.30;2.80;;;7.00;99.90;;;;;;5012095;28;20383;-72
2023/05/04 03:16:25;;;;;;;4.10;2.83;;;7.00;99.90;;;;;;5012055;28;20184;-72
2023/05/04 03:18:50;;;;;;;2.83;2.33;;;7.00;99.90;;;;;;5026894;28;20205;-72
2023/05/04 03:21:16;;;;;;;2.63;2.20;;;7.00;99.90;;;;;;5010721;28;20165;-72
2023/05/04 03:23:41;;;;;;;7.03;3.67;;;7.00;99.90;;;;;;5012143;28;20168;-72
2023/05/04 03:26:07;;;;;;;4.07;3.27;;;7.00;99.90;;;;;;5011873;28;20557;-72
2023/05/04 03:28:32;;;;;;;7.43;4.67;;;7.00;99.90;;;;;;5011582;28;20176;-73
2023/05/04 03:30:58;;;;;;;4.00;3.17;;;6.90;99.90;;;;;;5011898;28;20168;-74
2023/05/04 03:33:23;;;;;;;4.17;3.37;;;6.90;99.90;;;;;;5011758;28;20211;-74
2023/05/04 03:35:49;;;;;;;3.40;3.10;;;6.90;99.90;;;;;;5011703;28;20184;-74
2023/05/04 03:38:15;;;;;;;2.80;2.33;;;6.90;99.90;;;;;;5011619;28;20176;-74
2023/05/04 03:40:41;;;;;;;3.13;2.83;;;6.90;99.90;;;;;;5011632;28;20592;-73
2023/05/04 03:43:06;;;;;;;3.47;2.40;;;6.90;99.90;;;;;;5011649;28;20486;-74
2023/05/04 03:45:32;;;;;;;2.57;2.37;;;6.90;99.90;;;;;;5011586;28;20565;-73
2023/05/04 03:47:57;;;;;;;2.60;1.77;;;6.90;99.90;;;;;;5011491;28;20183;-73
2023/05/04 03:50:23;;;;;;;2.57;2.37;;;6.90;99.90;;;;;;5011632;28;20175;-73
2023/05/04 03:52:49;;;;;;;3.73;2.40;;;6.90;99.90;;;;;;5011492;28;20208;-74
2023/05/04 03:55:14;;;;;;;2.57;2.37;;;6.90;99.90;;;;;;5011495;28;20176;-73
2023/05/04 03:57:40;;;;;;;2.10;1.70;;;6.90;99.90;;;;;;5011198;28;20510;-74
2023/05/04 04:00:06;;;;;;;2.90;2.20;;;6.80;99.90;;;;;;5011372;28;20175;-74
2023/05/04 04:02:32;;;;;;;2.63;2.43;;;6.90;99.90;;;;;;5010512;28;20596;-73
2023/05/04 04:04:58;;;;;;;3.90;2.70;;;6.80;99.90;;;;;;5011218;28;20411;-73
2023/05/04 04:07:23;;;;;;;4.07;2.80;;;6.90;99.90;;;;;;5011042;28;20188;-74
2023/05/04 04:09:49;;;;;;;3.00;2.03;;;6.90;99.90;;;;;;5011441;28;20543;-74
2023/05/04 04:12:17;;;;;;;2.83;1.60;;;6.90;99.90;;;;;;4974981;28;1059204;-74
2023/05/04 04:14:43;;;;;;;4.10;2.00;;;6.90;99.90;;;;;;5012100;28;20196;-73
2023/05/04 04:17:08;;;;;;;2.60;2.23;;;6.90;99.90;;;;;;5026781;28;20467;-73
2023/05/04 04:19:34;;;;;;;3.60;2.40;;;6.80;99.90;;;;;;5011722;28;20167;-74
2023/05/04 04:21:59;;;;;;;7.70;6.43;;;6.90;99.90;;;;;;5012061;28;20172;-73
2023/05/04 04:24:25;;;;;;;8.00;4.93;;;6.90;99.90;;;;;;5012137;28;20160;-74
2023/05/04 04:26:50;;;;;;;5.23;4.17;;;7.00;99.90;;;;;;5026911;28;20187;-74
2023/05/04 04:29:16;;;;;;;4.03;3.10;;;7.00;99.90;;;;;;5011995;28;20294;-74
2023/05/04 04:31:42;;;;;;;4.57;2.87;;;7.10;99.90;;;;;;5011922;28;20665;-73
2023/05/04 04:34:07;;;;;;;5.80;2.57;;;7.10;99.90;;;;;;5012072;28;20665;-74
2023/05/04 04:36:33;;;;;;;4.90;2.50;;;7.20;99.90;;;;;;5012156;28;20196;-74
2023/05/04 04:38:59;;;;;;;2.90;2.13;;;7.20;99.90;;;;;;5027197;28;20649;-74
2023/05/04 04:41:24;;;;;;;2.53;2.23;;;7.30;99.90;;;;;;5011848;28;20415;-74
2023/05/04 04:43:50;;;;;;;2.50;2.30;;;7.40;99.90;;;;;;5011818;28;20192;-74
2023/05/04 04:46:15;;;;;;;2.40;2.20;;;7.50;99.90;;;;;;5011651;28;20224;-74
2023/05/04 04:48:41;;;;;;;38.53;21.03;;;7.60;99.90;;;;;;5011419;28;20209;-74
2023/05/04 04:51:11;;;;;;;131.77;70.90;;;7.70;99.90;;;;;;5011605;28;20172;-74
2023/05/04 04:53:36;;;;;;;7.33;5.10;;;7.80;99.90;;;;;;5011834;28;20168;-74
2023/05/04 04:56:02;;;;;;;6.03;3.70;;;7.90;99.90;;;;;;5011679;28;20477;-72
2023/05/04 04:58:28;;;;;;;3.20;2.30;;;8.00;99.90;;;;;;5011501;28;20175;-73
2023/05/04 05:00:54;;;;;;;4.37;2.73;;;8.20;99.90;;;;;;5011777;28;20663;-74
2023/05/04 05:03:20;;;;;;;4.53;2.77;;;8.40;99.90;;;;;;5026909;28;20223;-74
2023/05/04 05:05:45;;;;;;;2.47;2.27;;;8.50;99.90;;;;;;5011420;28;20800;-74
2023/05/04 05:08:11;;;;;;;3.70;2.20;;;8.70;99.90;;;;;;5011533;28;20629;-74
2023/05/04 05:10:36;;;;;;;1.63;1.53;;;8.80;99.90;;;;;;5011669;28;20255;-74
2023/05/04 05:13:02;;;;;;;4.97;2.40;;;9.00;99.90;;;;;;5013101;28;20579;-74
2023/05/04 05:15:28;;;;;;;4.13;2.90;;;9.20;99.90;;;;;;5013677;28;20664;-74
2023/05/04 05:17:53;;;;;;;2.80;2.50;;;9.50;99.90;;;;;;5014747;28;20156;-74
2023/05/04 05:20:19;;;;;;;4.63;3.00;;;9.80;99.90;;;;;;5014969;28;20172;-74
2023/05/04 05:22:44;;;;;;;5.73;3.77;;;10.00;99.90;;;;;;5015077;28;20175;-72
2023/05/04 05:25:11;;;;;;;3.60;2.73;;;10.40;99.90;;;;;;5014800;28;20176;-72
2023/05/04 05:27:36;;;;;;;2.90;2.47;;;10.70;99.90;;;;;;5014482;28;20172;-72
2023/05/04 05:30:04;;;;;;;3.43;3.10;;;10.90;99.90;;;;;;5014788;28;20411;-72
2023/05/04 05:32:29;;;;;;;4.50;2.60;;;11.30;99.90;;;;;;5014706;28;20192;-72
2023/05/04 05:34:55;;;;;;;3.07;2.57;;;11.80;99.90;;;;;;5013574;28;20407;-72
2023/05/04 05:37:21;;;;;;;3.67;2.73;;;12.30;99.90;;;;;;5014427;28;20271;-72
2023/05/04 05:39:46;;;;;;;2.73;2.30;;;12.80;99.90;;;;;;5014613;28;20400;-72
2023/05/04 05:42:12;;;;;;;5.50;2.60;;;13.40;99.90;;;;;;5014445;28;20222;-72
2023/05/04 05:44:37;;;;;;;3.20;2.87;;;14.00;99.90;;;;;;5014417;28;20180;-72
2023/05/04 05:47:04;;;;;;;3.33;2.27;;;14.40;99.90;;;;;;5014421;28;20226;-72
2023/05/04 05:49:30;;;;;;;4.73;2.13;;;14.70;99.90;;;;;;5014628;28;20172;-72
2023/05/04 05:51:57;;;;;;;2.50;1.90;;;15.10;99.90;;;;;;5014364;28;20505;-72
2023/05/04 05:54:22;;;;;;;3.60;2.50;;;15.40;99.90;;;;;;5014294;28;20407;-72
2023/05/04 05:56:48;;;;;;;2.83;2.27;;;15.80;99.90;;;;;;5014206;28;20427;-72
2023/05/04 05:59:14;;;;;;;3.63;2.43;;;15.90;99.90;;;;;;5014165;28;20172;-72
2023/05/04 06:01:40;;;;;;;4.63;2.30;;;15.70;99.90;;;;;;5014274;28;20164;-72
2023/05/04 06:04:06;;;;;;;6.37;2.83;;;15.60;99.90;;;;;;5014208;28;20400;-72
2023/05/04 06:06:31;;;;;;;3.73;2.60;;;15.40;99.90;;;;;;5014043;28;20181;-72
2023/05/04 06:08:59;;;;;;;3.83;2.70;;;15.60;99.90;;;;;;5013774;28;20203;-72
2023/05/04 06:11:24;;;;;;;2.43;2.23;;;15.90;99.80;;;;;;5013760;28;20164;-72
2023/05/04 06:13:50;;;;;;;3.60;2.53;;;16.00;97.20;;;;;;5014012;28;20437;-72
2023/05/04 06:16:15;;;;;;;5.60;2.30;;;16.00;96.80;;;;;;5013919;28;20188;-72
2023/05/04 06:18:41;;;;;;;3.63;2.37;;;16.20;96.10;;;;;;5013353;28;20247;-72
2023/05/04 06:21:07;;;;;;;2.60;2.17;;;16.20;94.90;;;;;;5013456;28;20708;-72
2023/05/04 06:23:32;;;;;;;2.23;2.00;;;16.40;95.80;;;;;;5011979;28;20777;-72
2023/05/04 06:25:58;;;;;;;3.83;3.20;;;16.50;91.90;;;;;;5013202;28;20192;-72
2023/05/04 06:28:23;;;;;;;3.50;2.37;;;16.70;92.30;;;;;;5013455;28;20230;-72
2023/05/04 06:30:49;;;;;;;4.00;2.10;;;16.80;91.70;;;;;;5028854;28;20173;-72
2023/05/04 06:33:15;;;;;;;3.10;2.33;;;17.10;90.00;;;;;;5028836;28;20215;-72
2023/05/04 06:35:40;;;;;;;3.10;2.80;;;17.40;87.70;;;;;;5013543;28;20545;-72
2023/05/04 06:38:06;;;;;;;2.57;2.37;;;17.90;85.20;;;;;;5013300;28;20172;-72
2023/05/04 06:40:31;;;;;;;3.73;2.60;;;18.50;81.30;;;;;;5013546;28;20518;-72
2023/05/04 06:42:57;;;;;;;2.93;2.30;;;19.10;77.00;;;;;;5013451;28;20176;-72
2023/05/04 06:45:22;;;;;;;2.60;2.27;;;19.50;70.10;;;;;;5013393;28;20172;-72
2023/05/04 06:47:48;;;;;;;2.73;2.33;;;19.80;67.10;;;;;;5013102;28;20168;-68
2023/05/04 06:50:14;;;;;;;2.27;2.07;;;20.00;63.30;;;;;;5013354;28;20176;-69
2023/05/04 06:52:42;;;;;;;3.53;2.47;;;20.20;60.00;;;;;;5028371;28;20251;-69
2023/05/04 06:55:08;;;;;;;2.53;2.33;;;20.80;61.00;;;;;;5013183;28;20414;-68
2023/05/04 06:57:33;;;;;;;2.47;2.27;;;21.10;59.20;;;;;;5012967;28;20403;-68
2023/05/04 06:59:59;;;;;;;3.13;2.83;;;21.50;57.30;;;;;;5013158;28;20173;-68
2023/05/04 07:02:24;;;;;;;3.10;2.80;;;21.30;55.00;;;;;;5013189;28;20168;-69
2023/05/04 07:04:51;;;;;;;3.20;2.20;;;21.80;55.90;;;;;;5013195;28;20173;-68
2023/05/04 07:07:17;;;;;;;7.43;2.50;;;22.60;56.50;;;;;;5012703;28;20544;-68
2023/05/04 07:09:42;;;;;;;6.13;3.00;;;23.10;51.90;;;;;;5012937;28;20486;-69
2023/05/04 07:12:08;;;;;;;3.07;2.77;;;23.00;50.00;;;;;;5012809;28;20200;-69
2023/05/04 07:14:34;;;;;;;3.10;2.70;;;23.10;48.80;;;;;;5012988;28;20171;-68
2023/05/04 07:17:00;;;;;;;9.53;3.33;;;22.90;48.90;;;;;;5012520;28;20191;-68
2023/05/04 07:19:26;;;;;;;2.83;2.30;;;22.90;49.30;;;;;;5012900;28;20168;-68
2023/05/04 07:21:51;;;;;;;2.80;2.60;;;23.30;49.80;;;;;;5012785;28;20407;-68
2023/05/04 07:24:17;;;;;;;4.30;2.70;;;24.00;49.20;;;;;;5012768;28;20399;-69
2023/05/04 07:26:43;;;;;;;4.90;3.60;;;24.60;47.10;;;;;;5012630;28;20202;-69
2023/05/04 07:29:08;;;;;;;3.17;2.27;;;24.70;45.10;;;;;;5012516;28;20168;-68
2023/05/04 07:31:34;;;;;;;4.63;3.47;;;25.00;44.60;;;;;;5012640;28;20192;-69
2023/05/04 07:34:00;;;;;;;3.40;2.50;;;24.70;43.90;;;;;;5012590;28;20160;-68
2023/05/04 07:36:26;;;;;;;4.80;2.70;;;25.40;44.40;;;;;;5012311;28;20423;-69
2023/05/04 07:38:52;;;;;;;5.73;2.73;;;26.00;43.60;;;;;;5012227;28;20251;-69
2023/05/04 07:41:18;;;;;;;5.03;2.60;;;25.80;41.90;;;;;;5012364;28;20482;-69
2023/05/04 07:43:44;;;;;;;5.00;3.27;;;26.30;42.00;;;;;;5012431;28;20461;-69
2023/05/04 07:46:10;;;;;;;3.33;3.03;;;26.70;40.90;;;;;;5012374;28;20424;-69
2023/05/04 07:48:35;;;;;;;3.70;2.70;;;27.50;40.70;;;;;;5012155;28;20244;-69
2023/05/04 07:51:01;;;;;;;3.63;3.17;;;28.10;39.50;;;;;;5012429;28;20172;-69
2023/05/04 07:53:26;;;;;;;4.37;3.17;;;29.10;38.50;;;;;;5011967;28;20198;-69
2023/05/04 07:55:56;;;;;;;3.87;3.47;;;29.90;37.00;;;;;;5012233;28;20196;-69
2023/05/04 07:58:22;;;;;;;3.07;2.80;;;29.70;35.70;;;;;;5012015;28;20168;-68
2023/05/04 08:00:48;;;;;;;3.90;3.00;;;29.50;34.70;;;;;;5012281;28;20773;-69
2023/05/04 08:03:14;;;;;;;3.77;2.50;;;29.70;35.30;;;;;;5012244;28;20399;-70
2023/05/04 08:05:39;;;;;;;3.63;2.23;;;29.90;34.70;;;;;;5012217;28;20192;-70
2023/05/04 08:08:06;;;;;;;7.33;2.70;;;30.90;35.30;;;;;;5011697;28;20399;-70
2023/05/04 08:10:35;;;;;;;6.00;2.70;;;31.10;32.80;;;;;;5012211;28;20575;-71
2023/05/04 08:13:01;;;;;;;7.47;2.90;;;31.30;32.80;;;;;;5012047;28;20490;-70
2023/05/04 08:15:26;;;;;;;4.20;3.10;;;31.00;32.30;;;;;;5012107;28;20466;-70
2023/05/04 08:17:53;;;;;;;3.57;2.50;;;30.40;32.10;;;;;;5011854;28;20251;-70
2023/05/04 08:20:19;;;;;;;3.23;2.60;;;30.70;33.00;;;;;;5012091;28;20166;-70
2023/05/04 08:22:45;;;;;;;4.87;4.40;;;30.80;32.70;;;;;;5012017;28;20490;-70
2023/05/04 08:25:10;;;;;;;3.30;3.00;;;31.30;31.80;;;;;;5012009;28;20176;-71
2023/05/04 08:27:36;;;;;;;3.20;2.90;;;31.60;32.00;;;;;;5011757;28;20183;-70
2023/05/04 08:30:01;;;;;;;3.07;2.87;;;31.70;31.10;;;;;;5012062;28;20214;-70
2023/05/04 08:32:27;;;;;;;3.47;3.17;;;32.30;30.70;;;;;;5011912;28;20192;-70
2023/05/04 08:34:53;;;;;;;2.83;2.60;;;32.00;30.10;;;;;;5011682;28;20169;-70
2023/05/04 08:37:19;;;;;;;4.50;3.03;;;32.20;30.30;;;;;;5011467;28;20466;-71
2023/05/04 08:39:44;;;;;;;6.50;2.70;;;32.30;30.80;;;;;;5011970;28;20196;-70
2023/05/04 08:42:10;;;;;;;4.30;3.03;;;32.20;30.30;;;;;;5011903;28;20172;-70
2023/05/04 08:44:36;;;;;;;3.20;2.90;;;31.70;31.50;;;;;;5011634;28;20164;-71
2023/05/04 08:47:03;;;;;;;4.10;3.50;;;31.80;31.20;;;;;;5011640;28;20188;-68
2023/05/04 08:49:29;;;;;;;3.40;2.70;;;32.00;30.60;;;;;;5015609;28;20172;-68
2023/05/04 08:51:56;;;;;;;3.07;2.77;;;32.70;31.50;;;;;;5015341;28;20446;-68
2023/05/04 08:54:22;;;;;;;3.10;2.80;;;33.60;30.40;;;;;;5015773;28;20409;-68
2023/05/04 08:56:51;;;;;;;4.23;3.70;;;34.10;29.90;;;;;;5015316;28;20418;-68
2023/05/04 08:59:19;;;;;;;3.30;3.00;;;34.50;29.30;;;;;;5015368;28;20400;-68
2023/05/04 09:01:49;;;;;;;3.67;3.33;;;35.40;29.80;;;;;;5015355;28;20401;-70
2023/05/04 09:04:15;;;;;;;3.23;2.90;;;36.50;28.90;;;;;;5015257;28;20414;-69
2023/05/04 09:06:41;;;;;;;4.10;3.50;;;37.50;29.00;;;;;;5030355;28;20445;-69
2023/05/04 09:09:07;;;;;;;3.37;3.10;;;37.90;26.90;;;;;;5015107;28;20175;-70
2023/05/04 09:11:33;;;;;;;4.07;3.20;;;38.10;26.90;;;;;;5015123;28;20565;-69
2023/05/04 09:13:58;;;;;;;4.10;3.80;;;37.80;26.80;;;;;;5015173;28;20395;-69
2023/05/04 09:16:33;;;;;;;3.90;3.60;;;37.80;27.10;;;;;;5015150;28;20645;-69
2023/05/04 09:18:59;;;;;;;3.80;3.50;;;38.00;26.80;;;;;;5014752;28;20158;-69
2023/05/04 09:21:29;;;;;;;3.30;3.00;;;37.90;26.20;;;;;;5030240;28;20456;-69
2023/05/04 09:23:55;;;;;;;3.20;3.00;;;37.90;26.70;;;;;;5014996;28;20159;-69
2023/05/04 09:26:31;;;;;;;3.37;3.07;;;37.70;26.00;;;;;;5014863;28;20433;-69
2023/05/04 09:29:08;;;;;;;4.73;4.30;;;37.20;27.00;;;;;;5014608;28;20167;-69
2023/05/04 09:31:49;;;;;;;3.93;2.87;;;37.00;26.50;;;;;;5014751;28;20446;-68
2023/05/04 09:34:14;;;;;;;4.27;3.97;;;37.50;26.50;;;;;;5014724;28;20399;-69
2023/05/04 09:36:43;;;;;;;4.03;3.63;;;36.30;26.30;;;;;;5014694;28;20427;-69
2023/05/04 09:39:13;;;;;;;4.90;4.03;;;36.70;27.10;;;;;;5014476;28;20168;-69
2023/05/04 09:41:39;;;;;;;3.60;3.23;;;36.60;26.60;;;;;;5014367;28;20513;-69
2023/05/04 09:44:05;;;;;;;3.20;2.90;;;36.60;26.90;;;;;;5029831;28;20450;-70
2023/05/04 09:46:31;;;;;;;3.40;3.10;;;36.90;28.00;;;;;;5014553;28;20275;-69
2023/05/04 09:48:57;;;;;;;3.80;3.00;;;38.10;27.40;;;;;;5014143;28;20836;-69
2023/05/04 09:51:25;;;;;;;3.80;3.50;;;39.30;26.80;;;;;;5014339;28;20795;-69
2023/05/04 09:53:51;;;;;;;4.37;3.97;;;40.30;25.70;;;;;;5014538;28;20406;-69
2023/05/04 09:56:31;;;;;;;3.93;3.60;;;40.20;25.00;;;;;;5014209;28;20814;-68
2023/05/04 09:58:58;;;;;;;3.40;3.20;;;39.30;24.10;;;;;;5014053;28;20399;-69
2023/05/04 10:01:30;;;;;;;3.87;3.57;;;38.70;25.40;;;;;;5014400;28;20406;-69
2023/05/04 10:03:56;;;;;;;6.93;4.57;;;37.40;25.60;;;;;;5014167;28;20430;-70
2023/05/04 10:06:22;;;;;;;3.53;3.23;;;37.50;26.20;;;;;;5013916;28;20554;-69
2023/05/04 10:08:49;;;;;;;3.83;3.53;;;37.90;25.30;;;;;;5014154;28;20168;-69
2023/05/04 10:11:17;;;;;;;11.57;3.83;;;38.00;24.70;;;;;;5014013;28;20498;-69
2023/05/04 10:13:49;;;;;;;3.80;3.50;;;37.30;24.50;;;;;;5014208;28;20415;-68
2023/05/04 10:16:33;;;;;;;4.10;3.70;;;36.90;25.60;;;;;;5014075;28;20430;-68
2023/05/04 10:19:29;;;;;;;4.13;3.77;;;36.70;25.50;;;;;;5013835;28;20411;-69
2023/05/04 10:22:14;;;;;;;4.97;4.07;;;36.00;25.50;;;;;;5013991;28;20421;-67
2023/05/04 10:25:07;;;;;;;3.70;3.40;;;36.00;26.00;;;;;;5013701;28;20403;-68
2023/05/04 10:27:45;;;;;;;3.93;3.43;;;35.90;26.00;;;;;;5013701;28;20421;-68
2023/05/04 10:30:12;;;;;;;4.10;3.80;;;35.80;26.30;;;;;;5013765;28;20406;-67
2023/05/04 10:32:38;;;;;;;4.50;3.43;;;36.20;26.30;;;;;;5013554;28;20541;-67
2023/05/04 10:35:06;;;;;;;5.57;3.83;;;36.70;26.30;;;;;;5013617;28;20403;-67
2023/05/04 10:37:32;;;;;;;4.10;3.10;;;37.30;26.00;;;;;;5013271;28;20423;-67
2023/05/04 10:39:57;;;;;;;3.53;3.23;;;37.80;25.70;;;;;;5013581;28;20396;-67
2023/05/04 10:42:23;;;;;;;3.70;3.37;;;37.80;25.20;;;;;;5013488;28;20255;-67
2023/05/04 10:44:56;;;;;;;4.20;3.77;;;37.70;25.30;;;;;;5013313;28;20168;-68
2023/05/04 10:47:32;;;;;;;3.40;3.20;;;38.00;25.00;;;;;;5012986;28;20186;-67
2023/05/04 10:50:13;;;;;;;4.13;3.83;;;38.50;24.70;;;;;;5013494;28;20395;-67
2023/05/04 10:52:46;;;;;;;4.07;3.67;;;38.80;24.40;;;;;;5013187;28;20513;-67
2023/05/04 10:55:12;;;;;;;4.70;3.70;;;39.00;24.40;;;;;;5011798;28;20422;-67
2023/05/04 10:57:48;;;;;;;3.87;3.57;;;39.00;24.00;;;;;;5013014;28;20382;-67
2023/05/04 11:00:14;;;;;;;4.10;3.20;;;38.40;23.80;;;;;;5013191;28;20400;-67
2023/05/04 11:02:40;;;;;;;3.13;2.90;;;38.30;24.30;;;;;;5013114;28;20414;-67
2023/05/04 11:05:06;;;;;;;3.00;2.80;;;38.20;24.40;;;;;;5013137;28;20399;-67
2023/05/04 11:07:35;;;;;;;3.20;2.93;;;38.50;24.00;;;;;;5012772;28;20586;-67
2023/05/04 11:10:05;;;;;;;4.23;3.93;;;38.80;24.70;;;;;;5012552;28;20407;-68
2023/05/04 11:12:31;;;;;;;3.87;3.27;;;39.60;24.00;;;;;;5012540;28;20458;-68
2023/05/04 11:15:08;;;;;;;2.87;2.67;;;40.10;24.00;;;;;;5012968;28;20399;-67
2023/05/04 11:17:33;;;;;;;3.00;2.80;;;40.20;23.30;;;;;;5012572;28;20393;-67
2023/05/04 11:19:59;;;;;;;4.20;3.13;;;40.40;23.20;;;;;;5012944;28;20917;-69
2023/05/04 11:22:25;;;;;;;8.13;3.47;;;40.80;23.20;;;;;;5012984;28;20314;-68
2023/05/04 11:24:51;;;;;;;3.80;3.33;;;41.30;23.30;;;;;;5012809;28;20946;-68
2023/05/04 11:27:24;;;;;;;3.90;3.27;;;42.40;22.60;;;;;;5012397;28;20566;-68
2023/05/04 11:30:01;;;;;;;3.67;2.93;;;43.10;22.80;;;;;;5012776;28;20214;-68
2023/05/04 11:32:42;;;;;;;4.00;2.67;;;43.20;21.80;;;;;;5012559;28;20458;-68
2023/05/04 11:35:15;;;;;;;3.47;3.27;;;42.90;21.50;;;;;;5012625;28;20456;-67
2023/05/04 11:37:41;;;;;;;4.63;3.07;;;42.60;21.00;;;;;;5012325;28;20486;-68
2023/05/04 11:40:09;;;;;;;3.70;3.17;;;41.40;21.50;;;;;;5012474;28;20418;-68
2023/05/04 11:42:37;;;;;;;4.07;3.43;;;41.00;21.00;;;;;;5012422;28;20381;-68
2023/05/04 11:45:03;;;;;;;3.80;2.70;;;40.40;21.20;;;;;;5012000;28;20385;-68
2023/05/04 11:47:29;;;;;;;2.57;2.40;;;40.20;22.20;;;;;;5011786;28;20936;-68
2023/05/04 11:49:55;;;;;;;4.17;3.30;;;40.00;22.50;;;;;;5011913;28;20435;-69
2023/05/04 11:52:24;;;;;;;3.20;3.00;;;40.80;22.40;;;;;;5012214;28;20215;-67
2023/05/04 11:54:56;;;;;;;3.20;2.73;;;41.30;21.70;;;;;;5012423;28;20525;-68
2023/05/04 11:57:22;;;;;;;2.97;2.77;;;41.00;21.20;;;;;;5011997;28;20447;-68
2023/05/04 11:59:48;;;;;;;5.87;3.57;;;40.10;20.80;;;;;;5012285;28;20381;-67
2023/05/04 12:02:15;;;;;;;2.53;2.33;;;40.50;21.60;;;;;;5012112;28;20187;-68
2023/05/04 12:04:40;;;;;;;2.67;2.47;;;40.10;21.40;;;;;;5012360;28;20498;-68
2023/05/04 12:07:08;;;;;;;3.40;2.83;;;39.50;21.50;;;;;;5011825;28;20481;-68
2023/05/04 12:09:47;;;;;;;2.97;2.67;;;38.90;22.00;;;;;;5012238;28;20250;-68
2023/05/04 12:12:15;;;;;;;4.67;3.43;;;37.80;22.40;;;;;;5011920;28;20502;-68
2023/05/04 12:14:51;;;;;;;6.50;2.90;;;37.60;22.40;;;;;;5012094;28;20901;-68
2023/05/04 12:17:19;;;;;;;2.97;2.50;;;37.20;23.30;;;;;;5011728;28;20419;-67
2023/05/04 12:19:53;;;;;;;2.70;2.50;;;37.00;22.90;;;;;;5012127;28;20411;-67
2023/05/04 12:22:45;;;;;;;2.80;2.33;;;37.10;23.10;;;;;;5012670;28;20410;-68
2023/05/04 12:25:10;;;;;;;8.67;3.40;;;37.50;22.90;;;;;;5014992;28;20421;-67
2023/05/04 12:27:39;;;;;;;3.50;2.97;;;37.50;23.10;;;;;;5015610;28;20402;-68
2023/05/04 12:30:06;;;;;;;2.97;2.77;;;37.70;22.90;;;;;;5015871;28;20196;-67
2023/05/04 12:32:31;;;;;;;3.23;3.03;;;37.80;22.70;;;;;;5015855;28;20446;-68
2023/05/04 12:34:57;;;;;;;3.57;3.27;;;38.60;22.70;;;;;;5015846;28;20429;-68
2023/05/04 12:37:22;;;;;;;3.07;2.77;;;39.60;22.80;;;;;;5015458;28;20545;-68
2023/05/04 12:39:48;;;;;;;5.77;3.00;;;40.90;22.90;;;;;;5015779;28;20164;-69
2023/05/04 12:42:13;;;;;;;3.50;3.20;;;42.00;21.90;;;;;;5015741;28;20172;-68
2023/05/04 12:44:38;;;;;;;2.73;2.40;;;42.20;21.20;;;;;;5015659;28;20176;-68
2023/05/04 12:47:05;;;;;;;4.13;2.70;;;42.50;21.40;;;;;;5015339;28;20188;-68
2023/05/04 12:49:31;;;;;;;2.83;2.63;;;42.70;20.70;;;;;;5015453;28;20164;-68